^^
Datos históricos de la estación: Murcia-Puente Tocinos
Diario Informe para Junio 16, 2019 Unidades:  Métrico    Ingés   Ambas
Diario Semanal Mensual Anual
  Máxima: Mínima: Promedio:
Temperatura: 30.8 °C 24.4 °C 27.3 °C
Punto de rocio: 23.2 °C 17.5 °C 20.6 °C
Humedad: 91% 47.8% 69%
Velocidad viento: 22.1km/h 3.2km/h 11.3km/h
Racha viento: 38.9km/h - -
Viento- - NE
Presión: 1014.0 hPa 1011.1 hPa -
Precipitación: 0.0 mm    
 
 
Tabla de datos para Junio 16, 2019
Hora Temperatura Punto de rocio Presión Viento Velocidad viento Racha viento Humedad Intensidad lluvia(por hora) Nubes
00:04 25.7 °C 22.4 °C 1011.1 hPa NE 13 km/h 22.5 km/h 82% 0.0 mm
00:09 25.7 °C 22.4 °C 1011.1 hPa NE 12.5 km/h 17.7 km/h 82% 0.0 mm
00:14 25.7 °C 22.4 °C 1011.1 hPa NE 11.1 km/h 20.4 km/h 82% 0.0 mm
00:19 25.6 °C 22.4 °C 1011.2 hPa NE 11.4 km/h 22.2 km/h 82.6% 0.0 mm
00:24 25.6 °C 22.5 °C 1011.2 hPa NE 12.2 km/h 22.5 km/h 83% 0.0 mm
00:29 25.6 °C 22.5 °C 1011.2 hPa NE 12.2 km/h 22.5 km/h 83% 0.0 mm
00:34 25.7 °C 22.6 °C 1011.2 hPa NE 12.2 km/h 19.3 km/h 83% 0.0 mm
00:39 25.7 °C 22.7 °C 1011.2 hPa NE 12.1 km/h 19.8 km/h 83.7% 0.0 mm
00:44 25.6 °C 22.7 °C 1011.2 hPa NE 11.9 km/h 20.9 km/h 84% 0.0 mm
00:49 25.6 °C 22.8 °C 1011.4 hPa NE 12 km/h 19.3 km/h 84.6% 0.0 mm
00:54 25.6 °C 22.8 °C 1011.4 hPa NE 12.2 km/h 16.7 km/h 84.4% 0.0 mm
00:59 25.6 °C 22.9 °C 1011.4 hPa NE 11.3 km/h 16.7 km/h 85% 0.0 mm
01:04 25.6 °C 22.9 °C 1011.5 hPa NE 9.5 km/h 14.8 km/h 85% 0.0 mm
01:09 25.5 °C 22.9 °C 1011.5 hPa NE 9.5 km/h 15.6 km/h 85.4% 0.0 mm
01:14 25.5 °C 23 °C 1011.5 hPa NE 9.5 km/h 16.1 km/h 86% 0.0 mm
01:19 25.4 °C 22.9 °C 1011.6 hPa NE 9.3 km/h 18.5 km/h 86% 0.0 mm
01:24 25.3 °C 22.8 °C 1011.6 hPa NE 8.7 km/h 19.3 km/h 86% 0.0 mm
01:29 25.3 °C 23 °C 1011.6 hPa NE 8.7 km/h 15.6 km/h 86.9% 0.0 mm
01:34 25.3 °C 23 °C 1011.6 hPa NE 8.7 km/h 16.7 km/h 87% 0.0 mm
01:39 25.3 °C 23 °C 1011.5 hPa NE 8.9 km/h 16.1 km/h 87% 0.0 mm
01:44 25.3 °C 23 °C 1011.5 hPa NE 9.5 km/h 14.5 km/h 87% 0.0 mm
01:49 25.3 °C 23 °C 1011.6 hPa NNE 8.8 km/h 14.8 km/h 87% 0.0 mm
01:54 25.2 °C 22.9 °C 1011.6 hPa NE 6.9 km/h 14.5 km/h 87% 0.0 mm
01:59 25.2 °C 22.9 °C 1011.6 hPa NE 7.2 km/h 14.5 km/h 87% 0.0 mm
02:04 25.2 °C 22.9 °C 1011.7 hPa NE 7.6 km/h 13.7 km/h 87% 0.0 mm
02:09 25.2 °C 22.9 °C 1011.7 hPa NE 7.6 km/h 14.5 km/h 87% 0.0 mm
02:14 25.2 °C 22.9 °C 1011.7 hPa NE 7.6 km/h 12.9 km/h 87% 0.0 mm
02:19 25.2 °C 22.9 °C 1011.7 hPa NNE 7.3 km/h 11.9 km/h 87% 0.0 mm
02:24 25.2 °C 22.9 °C 1011.7 hPa NE 6.5 km/h 11.3 km/h 87% 0.0 mm
02:29 25.2 °C 22.9 °C 1011.7 hPa NNE 6.5 km/h 13 km/h 87% 0.0 mm
02:34 25.1 °C 22.8 °C 1011.7 hPa NE 6.5 km/h 13 km/h 87% 0.0 mm
02:39 25.1 °C 22.8 °C 1011.7 hPa NE 6.8 km/h 13 km/h 87% 0.0 mm
02:44 25.1 °C 22.8 °C 1011.7 hPa NE 7.6 km/h 13.7 km/h 87% 0.0 mm
02:49 25.1 °C 22.9 °C 1011.9 hPa NNE 7.6 km/h 14.5 km/h 88% 0.0 mm
02:54 25.1 °C 22.9 °C 1011.9 hPa NE 7.6 km/h 14.8 km/h 88% 0.0 mm
02:59 25.1 °C 22.9 °C 1011.9 hPa NE 7.6 km/h 14.5 km/h 88% 0.0 mm
03:04 25.1 °C 22.9 °C 1011.9 hPa NE 7.6 km/h 14.5 km/h 88% 0.0 mm
03:09 25.1 °C 22.9 °C 1011.9 hPa NE 7.9 km/h 17.2 km/h 88% 0.0 mm
03:14 25.1 °C 22.9 °C 1011.9 hPa NE 8.7 km/h 17.7 km/h 88% 0.0 mm
03:19 25.2 °C 23 °C 1011.9 hPa NE 8.6 km/h 16.1 km/h 88% 0.0 mm
03:24 25.2 °C 23 °C 1011.8 hPa NE 8.4 km/h 11.3 km/h 88% 0.0 mm
03:29 25.2 °C 23.1 °C 1011.8 hPa NE 8 km/h 12.2 km/h 88% 0.0 mm
03:34 25.2 °C 23 °C 1012.0 hPa NE 6.9 km/h 13 km/h 88% 0.0 mm
03:39 25.1 °C 22.9 °C 1012.0 hPa NE 7.7 km/h 17.2 km/h 88% 0.0 mm
03:44 25.1 °C 23 °C 1012.0 hPa NE 9.5 km/h 17.7 km/h 88.4% 0.0 mm
03:49 25.1 °C 23.2 °C 1012.0 hPa NE 9.2 km/h 14.5 km/h 89% 0.0 mm
03:54 25.1 °C 23.2 °C 1011.9 hPa NE 8.4 km/h 13 km/h 89% 0.0 mm
03:59 25.1 °C 23.2 °C 1011.9 hPa NE 7.9 km/h 12.9 km/h 89% 0.0 mm
04:04 25.1 °C 23.2 °C 1012.0 hPa NE 6.9 km/h 13 km/h 89% 0.0 mm
04:09 25.1 °C 23.1 °C 1012.0 hPa NE 7.1 km/h 13 km/h 89% 0.0 mm
04:14 25.1 °C 23.1 °C 1012.0 hPa NE 7.6 km/h 12.9 km/h 89% 0.0 mm
04:19 25.1 °C 23.1 °C 1012.0 hPa NE 7 km/h 10 km/h 89% 0.0 mm
04:24 25.1 °C 23.1 °C 1011.8 hPa NE 5.8 km/h 13 km/h 89% 0.0 mm
04:29 25.1 °C 23.1 °C 1011.8 hPa NE 6.3 km/h 12.9 km/h 89% 0.0 mm
04:34 25.1 °C 23.2 °C 1011.8 hPa NE 7.6 km/h 11.9 km/h 89% 0.0 mm
04:39 25.1 °C 23.2 °C 1011.8 hPa NE 7.2 km/h 14.8 km/h 89% 0.0 mm
04:44 25.1 °C 23.2 °C 1011.8 hPa NE 6.5 km/h 14.5 km/h 89% 0.0 mm
04:49 25.1 °C 23.2 °C 1012.0 hPa NE 6.6 km/h 11.1 km/h 89% 0.0 mm
04:54 25.1 °C 23.2 °C 1012.0 hPa NNE 6.9 km/h 11.3 km/h 89% 0.0 mm
04:59 25.1 °C 23.2 °C 1012.0 hPa NE 6.8 km/h 11.3 km/h 89% 0.0 mm
05:04 25.1 °C 23.2 °C 1012.0 hPa NE 6.5 km/h 11.3 km/h 89% 0.0 mm
05:09 25.1 °C 23.2 °C 1012.0 hPa NE 6 km/h 11.1 km/h 89% 0.0 mm
05:14 25 °C 23.1 °C 1012.0 hPa NE 5 km/h 11.3 km/h 89% 0.0 mm
05:19 25 °C 23.1 °C 1012.0 hPa NNE 5.4 km/h 10 km/h 89% 0.0 mm
05:24 24.9 °C 23 °C 1012.0 hPa NE 6.5 km/h 10 km/h 89% 0.0 mm
05:29 24.9 °C 23 °C 1012.0 hPa NE 6.3 km/h 9.7 km/h 89% 0.0 mm
05:34 24.9 °C 23 °C 1012.0 hPa NNE 5.8 km/h 11.1 km/h 89.2% 0.0 mm
05:39 24.9 °C 23.1 °C 1012.0 hPa NNE 6 km/h 11.3 km/h 89.7% 0.0 mm
05:44 24.9 °C 23.2 °C 1012.0 hPa NE 6.5 km/h 11.9 km/h 90% 0.0 mm
05:49 24.9 °C 23.1 °C 1012.0 hPa NE 6.5 km/h 11.3 km/h 90% 0.0 mm
05:54 24.9 °C 23.1 °C 1012.0 hPa NE 6.5 km/h 11.3 km/h 90% 0.0 mm
05:59 24.8 °C 23.1 °C 1012.0 hPa NE 6.5 km/h 11.9 km/h 90% 0.0 mm
06:04 24.8 °C 23.1 °C 1012.2 hPa NE 6.5 km/h 11.3 km/h 90% 0.0 mm
06:09 24.8 °C 23.1 °C 1012.2 hPa NE 6.3 km/h 12.2 km/h 90% 0.0 mm
06:14 24.8 °C 23.1 °C 1012.2 hPa NE 5.8 km/h 13 km/h 90% 0.0 mm
06:19 24.8 °C 23.1 °C 1012.5 hPa NE 6.1 km/h 13.7 km/h 90% 0.0 mm
06:24 24.8 °C 23.1 °C 1012.5 hPa NE 6.9 km/h 14.5 km/h 90% 0.0 mm
06:29 24.8 °C 23.1 °C 1012.5 hPa NNE 7.4 km/h 15.6 km/h 90% 0.0 mm
06:34 24.8 °C 23.1 °C 1012.5 hPa NNE 8.7 km/h 16.1 km/h 90% 0.0 mm
06:39 24.8 °C 23 °C 1012.5 hPa NE 8.6 km/h 14.5 km/h 90% 0.0 mm
06:44 24.7 °C 23 °C 1012.5 hPa NE 8.4 km/h 13 km/h 90% 0.0 mm
06:49 24.7 °C 22.9 °C 1012.7 hPa NE 7.9 km/h 12.9 km/h 90% 0.0 mm
06:54 24.7 °C 23 °C 1012.7 hPa NE 6.9 km/h 14.8 km/h 90.1% 0.0 mm
06:59 24.6 °C 23.1 °C 1012.7 hPa NE 7.1 km/h 14.8 km/h 91% 0.0 mm
07:04 24.6 °C 23.1 °C 1012.8 hPa NE 7.6 km/h 13 km/h 91% 0.0 mm
07:09 24.6 °C 23.1 °C 1012.8 hPa NE 7.6 km/h 14.8 km/h 91% 0.0 mm
07:14 24.6 °C 23 °C 1012.8 hPa NE 7.6 km/h 15.6 km/h 91% 0.0 mm
07:19 24.5 °C 22.9 °C 1012.9 hPa NE 8.1 km/h 16.1 km/h 91% 0.0 mm
07:24 24.4 °C 22.8 °C 1012.9 hPa NE 9.5 km/h 11.3 km/h 91% 0.0 mm
07:29 24.4 °C 22.8 °C 1012.9 hPa NE 8.6 km/h 9.7 km/h 91% 0.0 mm
07:34 24.4 °C 22.8 °C 1013.0 hPa NE 6.5 km/h 14.8 km/h 91% 0.0 mm
07:39 24.4 °C 22.9 °C 1013.0 hPa NE 6.8 km/h 14.5 km/h 91% 0.0 mm
07:44 24.5 °C 23 °C 1013.0 hPa NE 7.6 km/h 9.7 km/h 91% 0.0 mm
07:49 24.6 °C 23.1 °C 1013.0 hPa NE 7.2 km/h 10 km/h 91% 0.0 mm
07:54 24.7 °C 23 °C 1013.0 hPa NE 6.5 km/h 9.7 km/h 90.6% 0.0 mm
07:59 24.7 °C 23 °C 1013.0 hPa NNE 6.3 km/h 8.4 km/h 90% 0.0 mm
08:04 24.8 °C 23.1 °C 1013.2 hPa North 5.8 km/h 8 km/h 90% 0.0 mm
08:09 24.9 °C 23.2 °C 1013.2 hPa NNE 5.4 km/h 8 km/h 89.9% 0.0 mm
08:14 25.1 °C 23.2 °C 1013.2 hPa NE 3.2 km/h 8 km/h 89% 0.0 mm
08:19 25.2 °C 23.1 °C 1013.4 hPa NNE 3.4 km/h 8 km/h 88.2% 0.0 mm
08:24 25.2 °C 23.1 °C 1013.4 hPa NE 3.9 km/h 8 km/h 88% 0.0 mm
08:29 25.3 °C 23.1 °C 1013.4 hPa NNE 3.9 km/h 8 km/h 87.7% 0.0 mm
08:34 25.3 °C 23 °C 1013.5 hPa NNE 3.9 km/h 8 km/h 87% 0.0 mm
08:39 25.3 °C 23.1 °C 1013.5 hPa NNE 3.9 km/h 8 km/h 87.5% 0.0 mm
08:44 25.4 °C 23.2 °C 1013.5 hPa North 3.9 km/h 8 km/h 87.5% 0.0 mm
08:49 25.6 °C 23.2 °C 1013.6 hPa NNE 3.9 km/h 8.7 km/h 86.6% 0.0 mm
08:54 25.7 °C 23.1 °C 1013.6 hPa NNE 3.9 km/h 11.1 km/h 85.5% 0.0 mm
08:59 25.7 °C 23.1 °C 1013.6 hPa NNE 4.5 km/h 11.3 km/h 85.4% 0.0 mm
09:04 25.8 °C 23.2 °C 1013.8 hPa NE 5.8 km/h 11.1 km/h 85.1% 0.0 mm
09:09 25.8 °C 23 °C 1013.8 hPa NE 6 km/h 13.7 km/h 84.3% 0.0 mm
09:14 25.9 °C 23 °C 1013.8 hPa NNE 6.5 km/h 14.5 km/h 84.2% 0.0 mm
09:19 25.9 °C 23 °C 1013.8 hPa NE 6 km/h 13 km/h 84% 0.0 mm
09:24 26 °C 22.8 °C 1013.8 hPa NE 5 km/h 12.9 km/h 82.5% 0.0 mm
09:29 26.1 °C 22.6 °C 1013.8 hPa NNE 5.6 km/h 13 km/h 81.1% 0.0 mm
09:34 26.1 °C 22.5 °C 1013.8 hPa NE 6.9 km/h 13 km/h 80.5% 0.0 mm
09:39 26.2 °C 22.5 °C 1013.8 hPa NE 7.1 km/h 13 km/h 80.2% 0.0 mm
09:44 26.1 °C 22.4 °C 1013.8 hPa NE 7.6 km/h 18.5 km/h 80% 0.0 mm
09:49 26.1 °C 22.4 °C 1013.8 hPa NE 8.3 km/h 19.3 km/h 80% 0.0 mm
09:54 26.2 °C 22.5 °C 1013.8 hPa NE 10 km/h 17.7 km/h 79.9% 0.0 mm
09:59 26.4 °C 22.4 °C 1013.8 hPa NE 9.8 km/h 14.5 km/h 78.6% 0.0 mm
10:04 26.8 °C 22.5 °C 1013.8 hPa NE 9.5 km/h 14.8 km/h 77.6% 0.0 mm
10:09 26.9 °C 22.4 °C 1013.8 hPa NE 9.3 km/h 17.2 km/h 76.3% 0.0 mm
10:14 27.1 °C 22.4 °C 1013.8 hPa NE 8.7 km/h 17.7 km/h 75.3% 0.0 mm
10:19 27.3 °C 21.8 °C 1013.8 hPa NE 8.6 km/h 19 km/h 72% 0.0 mm
10:24 27.5 °C 21.3 °C 1013.8 hPa ENE 8.4 km/h 19.3 km/h 69% 0.0 mm
10:29 27.7 °C 21.4 °C 1013.8 hPa NE 8.7 km/h 21.7 km/h 68.7% 0.0 mm
10:34 27.8 °C 20.8 °C 1013.8 hPa NE 9.5 km/h 22.5 km/h 65.7% 0.0 mm
10:39 27.9 °C 20.8 °C 1013.8 hPa NE 10.2 km/h 20.9 km/h 65.4% 0.0 mm
10:44 27.9 °C 20.9 °C 1013.8 hPa NE 11.9 km/h 22.2 km/h 66.1% 0.0 mm
10:49 28.2 °C 20.5 °C 1013.9 hPa NE 11.7 km/h 22.5 km/h 63.2% 0.0 mm
10:54 28.5 °C 20.8 °C 1013.9 hPa NE 11.1 km/h 20.9 km/h 63.2% 0.0 mm
10:59 28.4 °C 20.1 °C 1013.9 hPa NE 11.4 km/h 24.1 km/h 61% 0.0 mm
11:04 28.3 °C 20.5 °C 1014.0 hPa ENE 11.9 km/h 26.2 km/h 62.7% 0.0 mm
11:09 28.3 °C 20.1 °C 1014.0 hPa NE 12 km/h 25.7 km/h 61% 0.0 mm
11:14 28.4 °C 19.9 °C 1014.0 hPa NNE 12.2 km/h 26.2 km/h 60.1% 0.0 mm
11:19 28.4 °C 19.9 °C 1014.0 hPa NE 12.8 km/h 25.7 km/h 60.1% 0.0 mm
11:24 28.6 °C 20 °C 1013.9 hPa ENE 14 km/h 24.1 km/h 59.6% 0.0 mm
11:29 28.8 °C 20.2 °C 1013.9 hPa NE 13.2 km/h 20.4 km/h 59.9% 0.0 mm
11:34 29 °C 20.4 °C 1013.9 hPa ENE 11.1 km/h 20.9 km/h 60% 0.0 mm
11:39 29.2 °C 20 °C 1013.9 hPa NE 10.6 km/h 27.8 km/h 57.6% 0.0 mm
11:44 29.1 °C 19.7 °C 1013.9 hPa NE 9.5 km/h 27.4 km/h 56.9% 0.0 mm
11:49 28.9 °C 19.3 °C 1013.9 hPa NE 10.7 km/h 26.2 km/h 56% 0.0 mm
11:54 28.9 °C 19.2 °C 1013.7 hPa NE 13.7 km/h 28.6 km/h 56% 0.0 mm
11:59 29.2 °C 19.5 °C 1013.7 hPa NE 13.4 km/h 29 km/h 56% 0.0 mm
12:04 29.3 °C 19.7 °C 1013.7 hPa NE 13 km/h 23.7 km/h 56% 0.0 mm
12:09 29.3 °C 19.7 °C 1013.6 hPa NE 13.3 km/h 24.1 km/h 56% 0.0 mm
12:14 29.2 °C 19.4 °C 1013.6 hPa NE 14 km/h 27 km/h 55.6% 0.0 mm
12:19 29.2 °C 19.2 °C 1013.6 hPa NE 13.9 km/h 27.8 km/h 54.9% 0.0 mm
12:24 29.3 °C 19 °C 1013.6 hPa NE 13.7 km/h 27.8 km/h 53.9% 0.0 mm
12:29 29.4 °C 18.9 °C 1013.6 hPa NE 14 km/h 27.4 km/h 53.1% 0.0 mm
12:34 29.5 °C 18.9 °C 1013.6 hPa NE 14.8 km/h 25.9 km/h 53% 0.0 mm
12:39 29.6 °C 18.7 °C 1013.6 hPa NE 14.3 km/h 25.7 km/h 52.1% 0.0 mm
12:44 29.6 °C 18.9 °C 1013.6 hPa NE 13 km/h 30.6 km/h 52.7% 0.0 mm
12:49 29.5 °C 18.8 °C 1013.6 hPa NE 14 km/h 32.2 km/h 52.6% 0.0 mm
12:54 29.7 °C 18.9 °C 1013.5 hPa NE 16.4 km/h 32.2 km/h 52.4% 0.0 mm
12:59 29.7 °C 18.7 °C 1013.5 hPa NE 16.7 km/h 30.6 km/h 51.9% 0.0 mm
13:04 29.7 °C 18.7 °C 1013.5 hPa NE 17.2 km/h 30.6 km/h 52% 0.0 mm
13:09 29.7 °C 18.8 °C 1013.5 hPa NE 16.7 km/h 27.8 km/h 52% 0.0 mm
13:14 29.9 °C 18.9 °C 1013.5 hPa NE 15.6 km/h 29.6 km/h 51.7% 0.0 mm
13:19 30 °C 18.9 °C 1013.5 hPa NE 15.1 km/h 29 km/h 51.4% 0.0 mm
13:24 30 °C 18.9 °C 1013.4 hPa NE 14 km/h 35.9 km/h 51.3% 0.0 mm
13:29 29.8 °C 18.7 °C 1013.4 hPa NE 15.2 km/h 35.4 km/h 51.3% 0.0 mm
13:34 29.9 °C 18.9 °C 1013.4 hPa NE 18 km/h 30.6 km/h 51.7% 0.0 mm
13:39 30.1 °C 18.4 °C 1013.4 hPa NE 18 km/h 33.3 km/h 49.7% 0.0 mm
13:44 30 °C 18.3 °C 1013.4 hPa Este 18 km/h 33.8 km/h 49.5% 0.0 mm
13:49 30.2 °C 18.6 °C 1013.4 hPa ENE 17.8 km/h 29.6 km/h 49.9% 0.0 mm
13:54 30.3 °C 18.5 °C 1013.3 hPa NE 17.2 km/h 29 km/h 49.5% 0.0 mm
13:59 30.3 °C 18.6 °C 1013.3 hPa ENE 16.8 km/h 31.5 km/h 49.4% 0.0 mm
14:04 30.4 °C 18.7 °C 1013.3 hPa NE 16.1 km/h 32.2 km/h 49.4% 0.0 mm
14:09 30.6 °C 18.9 °C 1013.1 hPa ENE 15.5 km/h 33.3 km/h 50% 0.0 mm
14:14 30.6 °C 19 °C 1013.1 hPa ENE 14 km/h 33.8 km/h 49.9% 0.0 mm
14:19 30.4 °C 18.6 °C 1013.1 hPa NE 15.2 km/h 35.9 km/h 49.4% 0.0 mm
14:24 30.5 °C 18.7 °C 1013.0 hPa NE 18 km/h 35.4 km/h 49.3% 0.0 mm
14:29 30.8 °C 18.7 °C 1013.0 hPa NE 17.3 km/h 32.3 km/h 48.8% 0.0 mm
14:34 30.7 °C 18.8 °C 1013.0 hPa NE 15.6 km/h 33.8 km/h 49.1% 0.0 mm
14:39 30.5 °C 19 °C 1012.9 hPa NE 16.7 km/h 33.8 km/h 50.3% 0.0 mm
14:44 30.7 °C 19.3 °C 1012.9 hPa NE 19 km/h 37 km/h 50.9% 0.0 mm
14:49 30.6 °C 19.4 °C 1012.9 hPa ENE 18.1 km/h 37 km/h 51% 0.0 mm
14:54 30.5 °C 19.5 °C 1012.9 hPa ENE 16.1 km/h 32.2 km/h 51.7% 0.0 mm
14:59 30.3 °C 19.4 °C 1012.9 hPa NE 16.4 km/h 34.3 km/h 52% 0.0 mm
15:04 30.3 °C 19.6 °C 1013.0 hPa NE 17.2 km/h 34.3 km/h 52.8% 0.0 mm
15:09 30.5 °C 19.6 °C 1013.0 hPa ENE 17.2 km/h 33.8 km/h 52.1% 0.0 mm
15:14 30.5 °C 19.2 °C 1013.0 hPa NE 17.2 km/h 32.2 km/h 50.9% 0.0 mm
15:19 30.4 °C 19.5 °C 1013.0 hPa NE 17.5 km/h 33.5 km/h 52.2% 0.0 mm
15:24 30.3 °C 19.5 °C 1012.8 hPa NE 18.4 km/h 34.3 km/h 52.7% 0.0 mm
15:29 30.3 °C 19.1 °C 1012.8 hPa NE 18.5 km/h 35.2 km/h 51% 0.0 mm
15:34 30.3 °C 19.2 °C 1012.8 hPa NE 19 km/h 35.4 km/h 51.6% 0.0 mm
15:39 30.4 °C 19.5 °C 1012.8 hPa NE 18.1 km/h 33.8 km/h 51.9% 0.0 mm
15:44 30.6 °C 19.5 °C 1012.8 hPa NE 16.1 km/h 32.2 km/h 51.8% 0.0 mm
15:49 30.7 °C 19.6 °C 1012.8 hPa NE 15.7 km/h 32.3 km/h 51.6% 0.0 mm
15:54 30.5 °C 19.3 °C 1012.8 hPa NE 14.8 km/h 33.8 km/h 51.3% 0.0 mm
15:59 30.3 °C 19.3 °C 1012.8 hPa NE 16.5 km/h 33.8 km/h 51.7% 0.0 mm
16:04 30.3 °C 19.1 °C 1012.8 hPa NE 19.8 km/h 37.8 km/h 51.2% 0.0 mm
16:09 30.2 °C 19.1 °C 1012.8 hPa NE 20.5 km/h 37 km/h 51.5% 0.0 mm
16:14 30.1 °C 19.3 °C 1012.8 hPa NE 22.1 km/h 35.4 km/h 52.3% 0.0 mm
16:19 30.2 °C 19.1 °C 1012.8 hPa NE 21.4 km/h 37 km/h 51.3% 0.0 mm
16:24 30.3 °C 19.3 °C 1012.7 hPa NE 19.8 km/h 37 km/h 52% 0.0 mm
16:29 30.5 °C 19.1 °C 1012.7 hPa ENE 19.3 km/h 32.2 km/h 50.8% 0.0 mm
16:34 30.6 °C 18.5 °C 1012.7 hPa Este 18 km/h 31.7 km/h 48.7% 0.0 mm
16:39 30.7 °C 18.9 °C 1012.5 hPa ENE 17.3 km/h 32.2 km/h 49.4% 0.0 mm
16:44 30.7 °C 18.7 °C 1012.5 hPa ENE 15.6 km/h 27.8 km/h 48.7% 0.0 mm
16:49 30.8 °C 18.8 °C 1012.5 hPa NE 15.4 km/h 25.7 km/h 48.8% 0.0 mm
16:54 30.6 °C 18.7 °C 1012.4 hPa NE 14.8 km/h 34.3 km/h 49.1% 0.0 mm
16:59 30.4 °C 18.8 °C 1012.4 hPa NE 15.6 km/h 33.8 km/h 50% 0.0 mm
17:04 30.4 °C 19 °C 1012.4 hPa NE 17.2 km/h 30.6 km/h 50.3% 0.0 mm
17:09 30.4 °C 18.9 °C 1012.4 hPa ENE 17.4 km/h 33.3 km/h 50.2% 0.0 mm
17:14 30.2 °C 18.9 °C 1012.4 hPa ENE 18 km/h 33.8 km/h 50.7% 0.0 mm
17:19 30.3 °C 18.9 °C 1012.4 hPa NE 17.3 km/h 30.6 km/h 50.5% 0.0 mm
17:24 30.3 °C 18.2 °C 1012.4 hPa ENE 15.6 km/h 34.3 km/h 48.5% 0.0 mm
17:29 30.4 °C 18.5 °C 1012.4 hPa NE 15.8 km/h 33.8 km/h 49% 0.0 mm
17:34 30.3 °C 18.4 °C 1012.4 hPa NE 16.4 km/h 35.9 km/h 49% 0.0 mm
17:39 30.2 °C 18.6 °C 1012.3 hPa NE 17.2 km/h 35.4 km/h 49.8% 0.0 mm
17:44 30.2 °C 18.4 °C 1012.3 hPa NE 19 km/h 30.6 km/h 49.4% 0.0 mm
17:49 30.2 °C 18.1 °C 1012.3 hPa ENE 17.8 km/h 27.4 km/h 48.6% 0.0 mm
17:54 30.2 °C 18.2 °C 1012.3 hPa NE 14.8 km/h 29.8 km/h 48.7% 0.0 mm
17:59 30.1 °C 17.9 °C 1012.3 hPa NE 16 km/h 31.5 km/h 48% 0.0 mm
18:04 30.1 °C 18 °C 1012.4 hPa ENE 18.4 km/h 32.2 km/h 48.1% 0.0 mm
18:09 30.2 °C 18 °C 1012.4 hPa NE 17.3 km/h 29.8 km/h 47.8% 0.0 mm
18:14 30.1 °C 17.9 °C 1012.4 hPa NE 14.8 km/h 30.6 km/h 48% 0.0 mm
18:19 30.1 °C 17.8 °C 1012.4 hPa NE 15 km/h 29.6 km/h 48% 0.0 mm
18:24 29.9 °C 18 °C 1012.3 hPa NE 15.6 km/h 29.6 km/h 48.7% 0.0 mm
18:29 29.9 °C 18 °C 1012.3 hPa NE 16.1 km/h 29.6 km/h 48.9% 0.0 mm
18:34 29.8 °C 18 °C 1012.3 hPa NE 17.2 km/h 29 km/h 49% 0.0 mm
18:39 29.8 °C 18 °C 1012.2 hPa NE 16.9 km/h 33.5 km/h 49.4% 0.0 mm
18:44 29.7 °C 18.1 °C 1012.2 hPa NE 16.1 km/h 38.9 km/h 49.9% 0.0 mm
18:49 29.6 °C 18.1 °C 1012.2 hPa NE 16.1 km/h 38.6 km/h 50% 0.0 mm
18:54 29.6 °C 18.1 °C 1012.2 hPa NE 16.1 km/h 29.6 km/h 50% 0.0 mm
18:59 29.4 °C 18.1 °C 1012.2 hPa NE 16.7 km/h 29 km/h 50.7% 0.0 mm
19:04 29.3 °C 17.8 °C 1012.2 hPa NE 18 km/h 31.7 km/h 50.1% 0.0 mm
19:09 29.3 °C 17.9 °C 1012.2 hPa NE 17.6 km/h 32.2 km/h 50.3% 0.0 mm
19:14 29.3 °C 18.1 °C 1012.2 hPa NE 16.4 km/h 27.8 km/h 51% 0.0 mm
19:19 29.2 °C 18 °C 1012.2 hPa NE 16.3 km/h 27.4 km/h 51% 0.0 mm
19:24 29.1 °C 18 °C 1012.1 hPa ENE 16.1 km/h 25.7 km/h 51% 0.0 mm
19:29 29.1 °C 18.1 °C 1012.1 hPa ENE 15.5 km/h 25.6 km/h 51.6% 0.0 mm
19:34 28.9 °C 17.9 °C 1012.1 hPa NE 14 km/h 29.6 km/h 51.6% 0.0 mm
19:39 28.8 °C 17.7 °C 1012.1 hPa NE 15 km/h 31.5 km/h 51.2% 0.0 mm
19:44 28.7 °C 17.8 °C 1012.1 hPa NE 17.2 km/h 32.2 km/h 51.6% 0.0 mm
19:49 28.7 °C 17.7 °C 1012.1 hPa NE 16.8 km/h 29 km/h 51.5% 0.0 mm
19:54 28.7 °C 18.1 °C 1012.1 hPa NE 15.6 km/h 22.5 km/h 52.9% 0.0 mm
19:59 28.6 °C 17.8 °C 1012.1 hPa NE 14.7 km/h 22.5 km/h 52.1% 0.0 mm
20:04 28.6 °C 17.8 °C 1012.2 hPa NE 13 km/h 22.2 km/h 52% 0.0 mm
20:09 28.5 °C 17.7 °C 1012.2 hPa NE 12.7 km/h 22.5 km/h 52% 0.0 mm
20:14 28.4 °C 17.6 °C 1012.2 hPa NE 11.9 km/h 22.5 km/h 52% 0.0 mm
20:19 28.3 °C 17.8 °C 1012.3 hPa ENE 11.7 km/h 22.2 km/h 53.1% 0.0 mm
20:24 28.2 °C 17.7 °C 1012.3 hPa ENE 11.1 km/h 24.5 km/h 52.8% 0.0 mm
20:29 28.1 °C 17.5 °C 1012.3 hPa ENE 11.7 km/h 25.9 km/h 52.4% 0.0 mm
20:34 28 °C 17.8 °C 1012.5 hPa NE 13 km/h 25.9 km/h 53.9% 0.0 mm
20:39 27.9 °C 17.9 °C 1012.5 hPa NE 13.3 km/h 25.9 km/h 54.8% 0.0 mm
20:44 27.8 °C 17.9 °C 1012.5 hPa ENE 14 km/h 22.5 km/h 55% 0.0 mm
20:49 27.7 °C 17.9 °C 1012.5 hPa ENE 13.7 km/h 24.5 km/h 55.1% 0.0 mm
20:54 27.6 °C 18 °C 1012.4 hPa NE 13 km/h 24.1 km/h 56% 0.0 mm
20:59 27.4 °C 17.8 °C 1012.4 hPa NE 13.2 km/h 24.1 km/h 56% 0.0 mm
21:04 27.3 °C 17.8 °C 1012.5 hPa ENE 13.7 km/h 22.5 km/h 56% 0.0 mm
21:09 27.3 °C 17.8 °C 1012.5 hPa ENE 12.9 km/h 25.9 km/h 56% 0.0 mm
21:14 27.2 °C 17.9 °C 1012.5 hPa NE 11.1 km/h 25.7 km/h 56.6% 0.0 mm
21:19 27.2 °C 18.2 °C 1012.6 hPa NE 10.8 km/h 20.9 km/h 58.3% 0.0 mm
21:24 26.9 °C 18.3 °C 1012.6 hPa NE 10 km/h 25.9 km/h 59% 0.0 mm
21:29 26.8 °C 18.1 °C 1012.6 hPa NE 10.9 km/h 25.7 km/h 59% 0.0 mm
21:34 26.7 °C 18 °C 1012.7 hPa NE 13 km/h 25.9 km/h 59% 0.0 mm
21:39 26.6 °C 18.1 °C 1012.7 hPa NE 13.3 km/h 25.7 km/h 59.5% 0.0 mm
21:44 26.6 °C 18.2 °C 1012.7 hPa NE 14 km/h 22.5 km/h 60% 0.0 mm
21:49 26.5 °C 18.1 °C 1012.7 hPa NE 12.9 km/h 20.9 km/h 60.1% 0.0 mm
21:54 26.4 °C 18.3 °C 1012.7 hPa NE 10.3 km/h 16.1 km/h 61% 0.0 mm
21:59 26.4 °C 18.3 °C 1012.7 hPa NE 9.4 km/h 14.8 km/h 61.1% 0.0 mm
22:04 26.3 °C 18.5 °C 1012.8 hPa NE 7.6 km/h 17.2 km/h 62.1% 0.0 mm
22:09 26.2 °C 18.6 °C 1012.8 hPa NE 8.3 km/h 17.7 km/h 63% 0.0 mm
22:14 26.2 °C 18.8 °C 1012.8 hPa NE 10 km/h 18.5 km/h 63.7% 0.0 mm
22:19 26.1 °C 18.9 °C 1012.9 hPa NE 10.6 km/h 19.3 km/h 64.6% 0.0 mm
22:24 26.1 °C 19 °C 1012.9 hPa NE 11.9 km/h 19.3 km/h 65% 0.0 mm
22:29 26 °C 18.9 °C 1012.9 hPa NE 11.7 km/h 20.9 km/h 65% 0.0 mm
22:34 26 °C 18.9 °C 1013.2 hPa NE 11.1 km/h 20.9 km/h 65.2% 0.0 mm
22:39 25.9 °C 19.1 °C 1013.2 hPa NE 10.6 km/h 17.7 km/h 66% 0.0 mm
22:44 25.8 °C 19 °C 1013.2 hPa NE 9.5 km/h 14.8 km/h 66% 0.0 mm
22:49 25.8 °C 19 °C 1013.4 hPa NE 9.6 km/h 14.5 km/h 66% 0.0 mm
22:54 25.8 °C 19.2 °C 1013.4 hPa NE 10 km/h 14.8 km/h 66.9% 0.0 mm
22:59 25.7 °C 19.1 °C 1013.4 hPa NE 9.6 km/h 14.8 km/h 67% 0.0 mm
23:04 25.7 °C 19.1 °C 1013.6 hPa NE 8.7 km/h 15.6 km/h 67% 0.0 mm
23:09 25.7 °C 19.1 °C 1013.6 hPa NE 8.9 km/h 16.1 km/h 67% 0.0 mm
23:14 25.6 °C 19 °C 1013.6 hPa NE 9.5 km/h 12.9 km/h 67% 0.0 mm
23:19 25.6 °C 19.2 °C 1013.7 hPa NE 8.7 km/h 10.3 km/h 67.6% 0.0 mm
23:24 25.5 °C 19.2 °C 1013.7 hPa NE 6.9 km/h 11.9 km/h 68% 0.0 mm
23:29 25.5 °C 19.2 °C 1013.7 hPa NE 6.8 km/h 11.3 km/h 68% 0.0 mm
23:34 25.4 °C 19.2 °C 1013.8 hPa NE 6.5 km/h 11.1 km/h 68.6% 0.0 mm
23:39 25.4 °C 19.3 °C 1013.8 hPa NE 5.9 km/h 11.3 km/h 69% 0.0 mm
23:44 25.3 °C 19.2 °C 1013.8 hPa NE 4.7 km/h 9.5 km/h 69% 0.0 mm
23:49 25.3 °C 19.3 °C 1013.8 hPa NE 5 km/h 9.7 km/h 69.3% 0.0 mm
23:54 25.3 °C 19.4 °C 1013.8 hPa NE 5.8 km/h 11.1 km/h 70% 0.0 mm
23:59 25.2 °C 19.4 °C 1013.8 hPa NE 6.2 km/h 11.3 km/h 70% 0.0 mm
Murcia-Puente Tocinos, España
Compliments of Weather Underground - 2.75 mb

La estación de MeteoMurcia.com, publica sus datos en los siguientes proyectos:

Weather Underground PWS IMURCIAP2 Meteoclimatic www.awekas.at

W3Counter
Web Analytics